createdAt,value
2019-01-27T00:00:15.785Z,0.00
2019-01-27T00:01:15.714Z,0.00
2019-01-27T00:02:15.621Z,0.00
2019-01-27T00:03:15.594Z,0.00
2019-01-27T00:04:15.515Z,0.00
2019-01-27T00:05:15.450Z,0.00
2019-01-27T00:06:15.421Z,0.00
2019-01-27T00:07:15.335Z,0.00
2019-01-27T00:08:15.306Z,0.00
2019-01-27T00:09:15.213Z,0.00
2019-01-27T00:10:15.158Z,0.00
2019-01-27T00:11:15.105Z,0.00
2019-01-27T00:12:15.040Z,0.00
2019-01-27T00:13:15.021Z,0.00
2019-01-27T00:14:14.924Z,0.00
2019-01-27T00:15:14.867Z,0.00
2019-01-27T00:16:14.810Z,0.00
2019-01-27T00:17:14.748Z,0.00
2019-01-27T00:18:14.721Z,0.00
2019-01-27T00:19:14.632Z,0.00
2019-01-27T00:20:14.574Z,0.00
2019-01-27T00:21:14.515Z,0.00
2019-01-27T00:22:14.458Z,0.00
2019-01-27T00:23:14.429Z,0.00
2019-01-27T00:24:14.375Z,0.00
2019-01-27T00:25:14.281Z,0.00
2019-01-27T00:26:14.240Z,0.00
2019-01-27T00:27:14.166Z,0.00
2019-01-27T00:28:14.147Z,0.00
2019-01-27T00:29:14.048Z,0.00
2019-01-27T00:30:13.994Z,0.00
2019-01-27T00:31:13.931Z,0.00
2019-01-27T00:32:13.875Z,0.00
2019-01-27T00:33:13.857Z,0.00
2019-01-27T00:34:13.758Z,0.00
2019-01-27T00:35:13.698Z,0.00
2019-01-27T00:36:13.639Z,0.00
2019-01-27T00:37:13.581Z,0.00
2019-01-27T00:38:13.564Z,0.00
2019-01-27T00:39:13.467Z,0.00
2019-01-27T00:40:13.439Z,0.00
2019-01-27T00:41:13.348Z,0.00
2019-01-27T00:42:13.287Z,0.00
2019-01-27T00:43:13.235Z,0.00
2019-01-27T00:44:13.171Z,0.00
2019-01-27T00:45:13.150Z,0.00
2019-01-27T00:46:13.059Z,0.00
2019-01-27T00:47:12.997Z,0.00
2019-01-27T00:48:12.939Z,0.00
2019-01-27T00:49:12.885Z,0.00
2019-01-27T00:50:12.860Z,0.00
2019-01-27T00:51:12.813Z,0.00
2019-01-27T00:52:12.707Z,0.00
2019-01-27T00:53:12.651Z,0.00
2019-01-27T00:54:12.593Z,0.00
2019-01-27T00:55:12.531Z,0.00
2019-01-27T00:56:12.506Z,0.00
2019-01-27T00:57:12.414Z,0.00
2019-01-27T00:58:12.358Z,0.00
2019-01-27T00:59:12.301Z,0.00
2019-01-27T01:00:12.243Z,0.00
2019-01-27T01:01:12.212Z,0.00
2019-01-27T01:02:12.129Z,0.00
2019-01-27T01:03:12.067Z,0.00
2019-01-27T01:04:12.007Z,0.00
2019-01-27T01:05:11.983Z,0.00
2019-01-27T01:06:11.889Z,0.00
2019-01-27T01:07:11.832Z,0.00
2019-01-27T01:08:11.777Z,0.00
2019-01-27T01:09:11.757Z,0.00
2019-01-27T01:10:11.656Z,0.00
2019-01-27T01:11:11.598Z,0.00
2019-01-27T01:12:11.539Z,0.00
2019-01-27T01:13:11.483Z,0.00
2019-01-27T01:14:11.456Z,0.00
2019-01-27T01:15:11.367Z,0.00
2019-01-27T01:16:11.350Z,0.00
2019-01-27T01:17:11.251Z,0.00
2019-01-27T01:18:11.190Z,0.00
2019-01-27T01:19:11.132Z,0.00
2019-01-27T01:20:11.078Z,0.00
2019-01-27T01:21:11.057Z,0.00
2019-01-27T01:22:10.958Z,0.00
2019-01-27T01:23:10.904Z,0.00
2019-01-27T01:24:10.842Z,0.00
2019-01-27T01:25:10.784Z,0.00
2019-01-27T01:26:10.776Z,0.00
2019-01-27T01:27:10.669Z,0.00
2019-01-27T01:28:10.610Z,0.00
2019-01-27T01:29:10.555Z,0.00
2019-01-27T01:30:10.493Z,0.00
2019-01-27T01:31:10.472Z,0.00
2019-01-27T01:32:10.376Z,0.00
2019-01-27T01:33:10.320Z,0.00
2019-01-27T01:34:10.261Z,0.00
2019-01-27T01:35:10.203Z,0.00
2019-01-27T01:36:10.171Z,0.00
2019-01-27T01:37:10.121Z,0.00
2019-01-27T01:38:10.029Z,0.00
2019-01-27T01:39:09.972Z,0.00
2019-01-27T01:40:09.911Z,0.00
2019-01-27T01:41:09.885Z,0.00
2019-01-27T01:42:09.800Z,0.00
2019-01-27T01:43:09.740Z,0.00
2019-01-27T01:44:09.680Z,0.00
2019-01-27T01:45:09.623Z,0.00
2019-01-27T01:46:09.604Z,0.00
2019-01-27T01:47:09.510Z,0.00
2019-01-27T01:48:09.450Z,0.00
2019-01-27T01:49:09.391Z,0.00
2019-01-27T01:50:09.333Z,0.00
2019-01-27T01:51:09.310Z,0.00
2019-01-27T01:52:09.215Z,0.00
2019-01-27T01:53:09.191Z,0.00
2019-01-27T01:54:09.143Z,0.00
2019-01-27T01:55:09.047Z,0.00
2019-01-27T01:56:08.982Z,0.00
2019-01-27T01:57:08.931Z,0.00
2019-01-27T01:58:08.868Z,0.00
2019-01-27T01:59:08.841Z,0.00
2019-01-27T02:00:08.753Z,0.00
2019-01-27T02:01:08.727Z,0.00
2019-01-27T02:02:08.637Z,0.00
2019-01-27T02:03:08.578Z,0.00
2019-01-27T02:04:08.523Z,0.00
2019-01-27T02:05:08.495Z,0.00
2019-01-27T02:06:08.405Z,0.00
2019-01-27T02:07:08.344Z,0.00
2019-01-27T02:08:08.318Z,0.00
2019-01-27T02:09:08.227Z,0.00
2019-01-27T02:10:08.202Z,0.00
2019-01-27T02:11:08.114Z,0.00
2019-01-27T02:12:08.056Z,0.00
2019-01-27T02:13:07.995Z,0.00
2019-01-27T02:14:07.978Z,0.00
2019-01-27T02:15:07.882Z,0.00
2019-01-27T02:16:07.823Z,0.00
2019-01-27T02:17:07.762Z,0.00
2019-01-27T02:18:07.707Z,0.00
2019-01-27T02:19:07.684Z,0.00
2019-01-27T02:20:07.590Z,0.00
2019-01-27T02:21:07.530Z,0.00
2019-01-27T02:22:07.475Z,0.00
2019-01-27T02:23:07.447Z,0.00
2019-01-27T02:24:07.395Z,0.00
2019-01-27T02:25:07.298Z,0.00
2019-01-27T02:26:07.240Z,0.00
2019-01-27T02:27:07.183Z,0.00
2019-01-27T02:28:07.123Z,0.00
2019-01-27T02:29:07.107Z,0.00
2019-01-27T02:30:07.014Z,0.00
2019-01-27T02:31:06.951Z,0.00
2019-01-27T02:32:06.891Z,0.00
2019-01-27T02:33:06.834Z,0.00
2019-01-27T02:34:06.819Z,0.00
2019-01-27T02:35:06.722Z,0.00
2019-01-27T02:36:06.660Z,0.00
2019-01-27T02:37:06.603Z,0.00
2019-01-27T02:38:06.542Z,0.00
2019-01-27T02:39:06.518Z,0.00
2019-01-27T02:40:06.427Z,0.00
2019-01-27T02:41:06.370Z,0.00
2019-01-27T02:42:06.335Z,0.00
2019-01-27T02:43:06.255Z,0.00
2019-01-27T02:44:06.232Z,0.00
2019-01-27T02:45:06.138Z,0.00
2019-01-27T02:46:06.087Z,0.00
2019-01-27T02:47:06.025Z,0.00
2019-01-27T02:48:05.994Z,0.00
2019-01-27T02:49:05.905Z,0.00
2019-01-27T02:50:05.848Z,0.00
2019-01-27T02:51:05.792Z,0.00
2019-01-27T02:52:05.760Z,0.00
2019-01-27T02:53:05.676Z,0.00
2019-01-27T02:54:05.619Z,0.00
2019-01-27T02:55:05.600Z,0.00
2019-01-27T02:56:05.502Z,0.00
2019-01-27T02:57:05.441Z,0.00
2019-01-27T02:58:05.388Z,0.00
2019-01-27T02:59:05.324Z,0.00
2019-01-27T03:00:05.315Z,0.00
2019-01-27T03:01:05.210Z,0.00
2019-01-27T03:02:05.151Z,0.00
2019-01-27T03:03:05.091Z,0.00
2019-01-27T03:04:05.039Z,0.00
2019-01-27T03:05:05.007Z,0.00
2019-01-27T03:06:04.919Z,0.00
2019-01-27T03:07:04.901Z,0.00
2019-01-27T03:08:04.835Z,0.00
2019-01-27T03:09:04.774Z,0.00
2019-01-27T03:10:04.683Z,0.00
2019-01-27T03:11:04.633Z,0.00
2019-01-27T03:12:04.570Z,0.00
2019-01-27T03:13:04.512Z,0.00
2019-01-27T03:14:04.485Z,0.00
2019-01-27T03:15:04.431Z,0.00
2019-01-27T03:16:04.338Z,0.00
2019-01-27T03:17:04.279Z,0.00
2019-01-27T03:18:04.220Z,0.00
2019-01-27T03:19:04.161Z,0.00
2019-01-27T03:20:04.135Z,0.00
2019-01-27T03:21:04.049Z,0.00
2019-01-27T03:22:03.992Z,0.00
2019-01-27T03:23:03.965Z,0.00
2019-01-27T03:24:03.871Z,0.00
2019-01-27T03:25:03.846Z,0.00
2019-01-27T03:26:03.789Z,0.00
2019-01-27T03:27:03.698Z,0.00
2019-01-27T03:28:03.639Z,0.00
2019-01-27T03:29:03.617Z,0.00
2019-01-27T03:30:03.522Z,0.00
2019-01-27T03:31:03.511Z,0.00
2019-01-27T03:32:03.445Z,0.00
2019-01-27T03:33:03.348Z,0.00
2019-01-27T03:34:03.321Z,0.00
2019-01-27T03:35:03.235Z,0.00
2019-01-27T03:36:03.207Z,0.00
2019-01-27T03:37:03.150Z,0.00
2019-01-27T03:38:03.056Z,0.00
2019-01-27T03:39:03.001Z,0.00
2019-01-27T03:40:02.950Z,0.00
2019-01-27T03:41:02.887Z,0.00
2019-01-27T03:42:02.892Z,0.00
2019-01-27T03:43:02.769Z,0.00
2019-01-27T03:44:02.710Z,0.00
2019-01-27T03:45:02.664Z,0.00
2019-01-27T03:46:02.594Z,0.00
2019-01-27T03:47:02.609Z,0.00
2019-01-27T03:48:02.503Z,0.00
2019-01-27T03:49:02.420Z,0.00
2019-01-27T03:50:02.360Z,0.00
2019-01-27T03:51:02.306Z,0.00
2019-01-27T03:52:02.255Z,0.00
2019-01-27T03:53:02.231Z,0.00
2019-01-27T03:54:02.600Z,0.00
2019-01-27T03:55:02.073Z,0.00
2019-01-27T03:56:02.014Z,0.00
2019-01-27T03:57:01.954Z,0.00
2019-01-27T03:58:01.932Z,0.00
2019-01-27T03:59:01.865Z,0.00
2019-01-27T04:00:01.780Z,0.00
2019-01-27T04:01:01.726Z,0.00
2019-01-27T04:02:01.696Z,0.00
2019-01-27T04:03:01.609Z,0.00
2019-01-27T04:04:01.588Z,0.00
2019-01-27T04:05:01.489Z,0.00
2019-01-27T04:06:01.429Z,0.00
2019-01-27T04:07:01.375Z,0.00
2019-01-27T04:08:01.354Z,0.00
2019-01-27T04:09:01.257Z,0.00
2019-01-27T04:10:01.204Z,0.00
2019-01-27T04:11:01.145Z,0.00
2019-01-27T04:12:01.091Z,0.00
2019-01-27T04:13:01.055Z,0.00
2019-01-27T04:14:00.967Z,0.00
2019-01-27T04:15:00.909Z,0.00
2019-01-27T04:16:00.881Z,0.00
2019-01-27T04:17:00.822Z,0.00
2019-01-27T04:18:00.732Z,0.00
2019-01-27T04:19:00.677Z,0.00
2019-01-27T04:20:00.619Z,0.00
2019-01-27T04:21:00.563Z,0.00
2019-01-27T04:22:00.531Z,0.00
2019-01-27T04:23:00.443Z,0.00
2019-01-27T04:24:00.386Z,0.00
2019-01-27T04:25:00.325Z,0.00
2019-01-27T04:26:00.299Z,0.00
2019-01-27T04:27:00.241Z,0.00
2019-01-27T04:28:00.151Z,0.00
2019-01-27T04:29:00.096Z,0.00
2019-01-27T04:30:00.036Z,0.00
2019-01-27T04:31:00.014Z,0.00
2019-01-27T04:31:59.928Z,0.00
2019-01-27T04:32:59.860Z,0.00
2019-01-27T04:33:59.803Z,0.00
2019-01-27T04:34:59.787Z,0.00
2019-01-27T04:35:59.687Z,0.00
2019-01-27T04:36:59.627Z,0.00
2019-01-27T04:37:59.569Z,0.00
2019-01-27T04:38:59.510Z,0.00
2019-01-27T04:39:59.479Z,0.00
2019-01-27T04:40:59.392Z,0.00
2019-01-27T04:41:59.338Z,0.00
2019-01-27T04:42:59.311Z,0.00
2019-01-27T04:43:59.254Z,0.00
2019-01-27T04:44:59.159Z,0.00
2019-01-27T04:45:59.102Z,0.00
2019-01-27T04:46:59.074Z,0.00
2019-01-27T04:47:59.017Z,0.00
2019-01-27T04:48:58.928Z,0.00
2019-01-27T04:49:58.867Z,0.00
2019-01-27T04:50:58.812Z,0.00
2019-01-27T04:51:58.752Z,0.00
2019-01-27T04:52:58.723Z,0.00
2019-01-27T04:53:58.633Z,0.00
2019-01-27T04:54:58.575Z,0.00
2019-01-27T04:55:58.522Z,0.00
2019-01-27T04:56:58.461Z,0.00
2019-01-27T04:57:58.430Z,0.00
2019-01-27T04:58:58.342Z,0.00
2019-01-27T04:59:58.289Z,0.00
2019-01-27T05:00:58.223Z,0.00
2019-01-27T05:01:58.163Z,0.00
2019-01-27T05:02:58.141Z,0.00
2019-01-27T05:03:58.048Z,0.00
2019-01-27T05:04:57.995Z,0.00
2019-01-27T05:05:57.987Z,0.00
2019-01-27T05:06:57.884Z,0.00
2019-01-27T05:07:57.817Z,0.00
2019-01-27T05:08:57.754Z,0.00
2019-01-27T05:09:57.698Z,0.00
2019-01-27T05:10:57.671Z,0.00
2019-01-27T05:11:57.581Z,0.00
2019-01-27T05:12:57.519Z,0.00
2019-01-27T05:13:57.463Z,0.00
2019-01-27T05:14:57.435Z,0.00
2019-01-27T05:15:57.344Z,0.00
2019-01-27T05:16:57.284Z,0.00
2019-01-27T05:17:57.225Z,0.00
2019-01-27T05:18:57.199Z,0.00
2019-01-27T05:19:57.107Z,0.00
2019-01-27T05:20:57.054Z,0.00
2019-01-27T05:21:57.023Z,0.00
2019-01-27T05:22:56.932Z,0.00
2019-01-27T05:23:56.873Z,0.00
2019-01-27T05:24:56.813Z,0.00
2019-01-27T05:25:56.753Z,0.00
2019-01-27T05:26:56.731Z,0.00
2019-01-27T05:27:56.635Z,0.00
2019-01-27T05:28:56.579Z,0.00
2019-01-27T05:29:56.569Z,0.00
2019-01-27T05:30:56.459Z,0.00
2019-01-27T05:31:56.403Z,0.00
2019-01-27T05:32:56.342Z,0.00
2019-01-27T05:33:56.288Z,0.00
2019-01-27T05:34:56.256Z,0.00
2019-01-27T05:35:56.169Z,0.00
2019-01-27T05:36:56.117Z,0.00
2019-01-27T05:37:56.047Z,0.00
2019-01-27T05:38:55.991Z,0.00
2019-01-27T05:39:55.962Z,0.00
2019-01-27T05:40:55.873Z,0.00
2019-01-27T05:41:55.809Z,0.00
2019-01-27T05:42:55.784Z,0.00
2019-01-27T05:43:55.693Z,0.00
2019-01-27T05:44:55.634Z,0.00
2019-01-27T05:45:55.626Z,0.00
2019-01-27T05:46:55.519Z,0.00
2019-01-27T05:47:55.460Z,0.00
2019-01-27T05:48:55.398Z,0.00
2019-01-27T05:49:55.338Z,0.00
2019-01-27T05:50:55.312Z,0.00
2019-01-27T05:51:55.221Z,0.00
2019-01-27T05:52:55.163Z,0.00
2019-01-27T05:53:55.106Z,0.00
2019-01-27T05:54:55.045Z,0.00
2019-01-27T05:55:55.020Z,0.00
2019-01-27T05:56:56.658Z,0.00
2019-01-27T05:57:54.903Z,0.00
2019-01-27T05:58:54.808Z,0.00
2019-01-27T05:59:54.752Z,0.00
2019-01-27T06:00:54.725Z,0.00
2019-01-27T06:01:54.631Z,0.00
2019-01-27T06:02:54.573Z,0.00
2019-01-27T06:03:54.520Z,0.00
2019-01-27T06:04:54.488Z,0.00
2019-01-27T06:05:54.431Z,0.00
2019-01-27T06:06:54.346Z,0.00
2019-01-27T06:07:54.313Z,0.00
2019-01-27T06:08:54.255Z,0.00
2019-01-27T06:09:54.160Z,0.00
2019-01-27T06:10:54.136Z,0.00
2019-01-27T06:11:54.043Z,0.00
2019-01-27T06:12:54.024Z,0.00
2019-01-27T06:13:53.929Z,0.00
2019-01-27T06:14:53.867Z,0.00
2019-01-27T06:15:53.806Z,0.00
2019-01-27T06:16:53.749Z,0.00
2019-01-27T06:17:53.730Z,0.00
2019-01-27T06:18:53.630Z,0.00
2019-01-27T06:19:53.570Z,0.00
2019-01-27T06:20:53.512Z,0.00
2019-01-27T06:21:53.451Z,0.00
2019-01-27T06:22:53.436Z,0.00
2019-01-27T06:23:53.335Z,0.00
2019-01-27T06:24:53.278Z,0.00
2019-01-27T06:25:53.259Z,0.00
2019-01-27T06:26:53.159Z,0.00
2019-01-27T06:27:53.140Z,0.00
2019-01-27T06:28:53.041Z,0.00
2019-01-27T06:29:53.016Z,0.00
2019-01-27T06:30:52.922Z,0.00
2019-01-27T06:31:52.864Z,0.00
2019-01-27T06:32:52.806Z,0.00
2019-01-27T06:33:52.747Z,0.00
2019-01-27T06:34:52.722Z,0.00
2019-01-27T06:35:52.665Z,0.00
2019-01-27T06:36:52.571Z,0.00
2019-01-27T06:37:52.511Z,0.00
2019-01-27T06:38:52.452Z,0.00
2019-01-27T06:39:52.396Z,0.00
2019-01-27T06:40:52.359Z,0.00
2019-01-27T06:41:52.310Z,0.00
2019-01-27T06:42:52.216Z,0.00
2019-01-27T06:43:52.158Z,0.00
2019-01-27T06:44:52.099Z,0.00
2019-01-27T06:45:52.071Z,0.00
2019-01-27T06:46:52.020Z,0.00
2019-01-27T06:47:51.921Z,0.00
2019-01-27T06:48:51.865Z,0.00
2019-01-27T06:49:51.804Z,0.00
2019-01-27T06:50:51.744Z,0.00
2019-01-27T06:51:51.722Z,0.00
2019-01-27T06:52:51.679Z,0.00
2019-01-27T06:53:51.569Z,0.00
2019-01-27T06:54:51.541Z,0.00
2019-01-27T06:55:51.483Z,0.00
2019-01-27T06:56:51.416Z,0.00
2019-01-27T06:57:51.372Z,0.00
2019-01-27T06:58:51.272Z,0.00
2019-01-27T06:59:51.213Z,0.00
2019-01-27T07:00:51.157Z,0.00
2019-01-27T07:01:51.098Z,0.00
2019-01-27T07:02:51.070Z,0.00
2019-01-27T07:03:50.980Z,0.00
2019-01-27T07:04:50.919Z,0.00
2019-01-27T07:05:50.859Z,0.00
2019-01-27T07:06:50.836Z,0.00
2019-01-27T07:07:50.777Z,0.00
2019-01-27T07:08:50.687Z,0.00
2019-01-27T07:09:50.625Z,0.00
2019-01-27T07:10:50.617Z,0.00
2019-01-27T07:11:50.510Z,0.00
2019-01-27T07:12:50.450Z,0.00
2019-01-27T07:13:50.390Z,0.00
2019-01-27T07:14:50.333Z,0.00
2019-01-27T07:15:50.307Z,0.00
2019-01-27T07:16:50.218Z,0.00
2019-01-27T07:17:50.197Z,0.00
2019-01-27T07:18:50.096Z,0.00
2019-01-27T07:19:50.040Z,0.00
2019-01-27T07:20:49.980Z,0.00
2019-01-27T07:21:49.923Z,0.00
2019-01-27T07:22:49.903Z,0.00
2019-01-27T07:23:49.813Z,0.00
2019-01-27T07:24:49.745Z,0.00
2019-01-27T07:25:49.688Z,0.00
2019-01-27T07:26:49.628Z,0.00
2019-01-27T07:27:49.608Z,5.63
2019-01-27T07:28:49.513Z,5.63
2019-01-27T07:29:49.451Z,5.63
2019-01-27T07:30:49.392Z,5.63
2019-01-27T07:31:49.344Z,5.63
2019-01-27T07:32:49.313Z,5.63
2019-01-27T07:33:49.253Z,5.63
2019-01-27T07:34:49.379Z,5.63
2019-01-27T07:35:49.099Z,5.63
2019-01-27T07:36:49.041Z,5.63
2019-01-27T07:37:48.983Z,5.63
2019-01-27T07:38:48.955Z,5.63
2019-01-27T07:39:48.897Z,5.63
2019-01-27T07:40:48.808Z,5.63
2019-01-27T07:41:48.749Z,11.25
2019-01-27T07:42:48.692Z,11.25
2019-01-27T07:43:48.630Z,11.25
2019-01-27T07:44:48.610Z,11.25
2019-01-27T07:45:48.516Z,11.25
2019-01-27T07:46:48.455Z,11.25
2019-01-27T07:47:48.398Z,11.25
2019-01-27T07:48:48.371Z,11.25
2019-01-27T07:49:48.282Z,5.63
2019-01-27T07:50:48.220Z,5.63
2019-01-27T07:51:48.163Z,11.25
2019-01-27T07:52:48.107Z,11.25
2019-01-27T07:53:48.078Z,11.25
2019-01-27T07:54:48.032Z,11.25
2019-01-27T07:55:47.931Z,11.25
2019-01-27T07:56:47.871Z,11.25
2019-01-27T07:57:47.813Z,11.25
2019-01-27T07:58:47.754Z,11.25
2019-01-27T07:59:47.729Z,11.25
2019-01-27T08:00:47.638Z,5.63
2019-01-27T08:01:47.580Z,5.63
2019-01-27T08:02:47.526Z,5.63
2019-01-27T08:03:47.495Z,5.63
2019-01-27T08:04:47.401Z,5.63
2019-01-27T08:05:47.343Z,11.25
2019-01-27T08:06:47.316Z,11.25
2019-01-27T08:07:47.259Z,11.25
2019-01-27T08:08:47.175Z,11.25
2019-01-27T08:09:47.108Z,11.25
2019-01-27T08:10:47.052Z,11.25
2019-01-27T08:11:47.028Z,11.25
2019-01-27T08:12:46.935Z,5.63
2019-01-27T08:13:46.875Z,5.63
2019-01-27T08:14:46.823Z,5.63
2019-01-27T08:15:46.760Z,11.25
2019-01-27T08:16:46.744Z,11.25
2019-01-27T08:17:46.674Z,16.88
2019-01-27T08:18:46.586Z,16.88
2019-01-27T08:19:46.525Z,16.88
2019-01-27T08:20:46.510Z,16.88
2019-01-27T08:21:46.409Z,22.50
2019-01-27T08:22:46.348Z,22.50
2019-01-27T08:23:46.294Z,22.50
2019-01-27T08:24:46.232Z,16.88
2019-01-27T08:25:46.215Z,16.88
2019-01-27T08:26:46.118Z,16.88
2019-01-27T08:27:46.059Z,16.88
2019-01-27T08:28:46.001Z,22.50
2019-01-27T08:29:45.943Z,22.50
2019-01-27T08:30:45.915Z,22.50
2019-01-27T08:31:45.824Z,22.50
2019-01-27T08:32:45.772Z,16.88
2019-01-27T08:33:45.707Z,11.25
2019-01-27T08:34:45.686Z,11.25
2019-01-27T08:35:45.591Z,16.88
2019-01-27T08:36:45.533Z,16.88
2019-01-27T08:37:45.476Z,16.88
2019-01-27T08:38:45.421Z,16.88
2019-01-27T08:39:45.391Z,16.88
2019-01-27T08:40:45.304Z,16.88
2019-01-27T08:41:45.243Z,22.50
2019-01-27T08:42:45.188Z,22.50
2019-01-27T08:43:45.130Z,22.50
2019-01-27T08:44:45.101Z,22.50
2019-01-27T08:45:45.013Z,22.50
2019-01-27T08:46:44.953Z,22.50
2019-01-27T08:47:44.925Z,28.13
2019-01-27T08:48:44.836Z,28.13
2019-01-27T08:49:44.776Z,33.75
2019-01-27T08:50:44.753Z,33.75
2019-01-27T08:51:44.660Z,33.75
2019-01-27T08:52:44.609Z,28.13
2019-01-27T08:53:44.575Z,28.13
2019-01-27T08:54:44.486Z,28.13
2019-01-27T08:55:44.437Z,28.13
2019-01-27T08:56:44.405Z,39.38
2019-01-27T08:57:44.311Z,50.63
2019-01-27T08:58:44.253Z,45.00
2019-01-27T08:59:44.197Z,33.75
2019-01-27T09:00:44.138Z,28.13
2019-01-27T09:01:44.130Z,22.50
2019-01-27T09:02:44.024Z,22.50
2019-01-27T09:03:43.963Z,22.50
2019-01-27T09:04:43.909Z,16.88
2019-01-27T09:05:43.847Z,16.88
2019-01-27T09:06:43.830Z,16.88
2019-01-27T09:07:43.736Z,16.88
2019-01-27T09:08:43.677Z,16.88
2019-01-27T09:09:43.614Z,16.88
2019-01-27T09:10:43.559Z,16.88
2019-01-27T09:11:43.545Z,16.88
2019-01-27T09:12:43.442Z,16.88
2019-01-27T09:13:43.384Z,22.50
2019-01-27T09:14:43.325Z,22.50
2019-01-27T09:15:43.285Z,16.88
2019-01-27T09:16:43.244Z,16.88
2019-01-27T09:17:43.154Z,16.88
2019-01-27T09:18:43.094Z,16.88
2019-01-27T09:19:43.038Z,16.88
2019-01-27T09:20:43.006Z,16.88
2019-01-27T09:21:42.921Z,16.88
2019-01-27T09:22:42.896Z,16.88
2019-01-27T09:23:42.806Z,16.88
2019-01-27T09:24:42.748Z,16.88
2019-01-27T09:25:42.689Z,16.88
2019-01-27T09:26:42.634Z,16.88
2019-01-27T09:27:42.608Z,16.88
2019-01-27T09:28:42.519Z,11.25
2019-01-27T09:29:42.459Z,11.25
2019-01-27T09:30:42.404Z,11.25
2019-01-27T09:31:42.347Z,11.25
2019-01-27T09:32:42.323Z,11.25
2019-01-27T09:33:42.227Z,22.50
2019-01-27T09:34:42.173Z,33.75
2019-01-27T09:35:42.129Z,39.38
2019-01-27T09:36:42.054Z,45.00
2019-01-27T09:37:42.027Z,45.00
2019-01-27T09:38:41.981Z,45.00
2019-01-27T09:39:41.884Z,45.00
2019-01-27T09:40:41.825Z,50.63
2019-01-27T09:41:41.770Z,50.63
2019-01-27T09:42:41.710Z,56.25
2019-01-27T09:43:41.682Z,56.25
2019-01-27T09:44:41.596Z,61.88
2019-01-27T09:45:41.577Z,73.13
2019-01-27T09:46:41.478Z,67.50
2019-01-27T09:47:41.420Z,61.88
2019-01-27T09:48:41.364Z,56.25
2019-01-27T09:49:41.305Z,56.25
2019-01-27T09:50:41.275Z,50.63
2019-01-27T09:51:41.188Z,45.00
2019-01-27T09:52:41.132Z,45.00
2019-01-27T09:53:41.077Z,45.00
2019-01-27T09:54:41.017Z,45.00
2019-01-27T09:55:40.994Z,39.38
2019-01-27T09:56:40.899Z,33.75
2019-01-27T09:57:40.845Z,39.38
2019-01-27T09:58:40.787Z,39.38
2019-01-27T09:59:40.767Z,39.38
2019-01-27T10:00:40.670Z,39.38
2019-01-27T10:01:40.611Z,45.00
2019-01-27T10:02:40.562Z,39.38
2019-01-27T10:03:40.498Z,39.38
2019-01-27T10:04:40.474Z,39.38
2019-01-27T10:05:40.391Z,39.38
2019-01-27T10:06:40.355Z,39.38
2019-01-27T10:07:40.268Z,39.38
2019-01-27T10:08:40.242Z,45.00
2019-01-27T10:09:40.153Z,39.38
2019-01-27T10:10:40.104Z,33.75
2019-01-27T10:11:40.038Z,33.75
2019-01-27T10:12:39.983Z,39.38
2019-01-27T10:13:39.955Z,39.38
2019-01-27T10:14:39.909Z,45.00
2019-01-27T10:15:39.815Z,50.63
2019-01-27T10:16:39.756Z,50.63
2019-01-27T10:17:39.691Z,50.63
2019-01-27T10:18:39.631Z,45.00
2019-01-27T10:19:39.607Z,50.63
2019-01-27T10:20:39.517Z,50.63
2019-01-27T10:21:39.491Z,56.25
2019-01-27T10:22:39.406Z,56.25
2019-01-27T10:23:39.346Z,56.25
2019-01-27T10:24:39.291Z,50.63
2019-01-27T10:25:39.258Z,50.63
2019-01-27T10:26:39.171Z,50.63
2019-01-27T10:27:39.149Z,50.63
2019-01-27T10:28:39.057Z,56.25
2019-01-27T10:29:39.000Z,61.88
2019-01-27T10:30:38.947Z,67.50
2019-01-27T10:31:38.917Z,67.50
2019-01-27T10:32:38.828Z,61.88
2019-01-27T10:33:38.776Z,56.25
2019-01-27T10:34:38.718Z,61.88
2019-01-27T10:35:42.715Z,61.88
2019-01-27T10:36:38.629Z,56.25
2019-01-27T10:37:38.538Z,56.25
2019-01-27T10:38:38.482Z,56.25
2019-01-27T10:39:38.468Z,50.63
2019-01-27T10:40:39.907Z,50.63
2019-01-27T10:41:38.309Z,45.00
2019-01-27T10:42:38.258Z,45.00
2019-01-27T10:43:38.195Z,50.63
2019-01-27T10:44:38.171Z,50.63
2019-01-27T10:45:38.317Z,50.63
2019-01-27T10:46:38.023Z,45.00
2019-01-27T10:47:37.999Z,45.00
2019-01-27T10:48:37.910Z,33.75
2019-01-27T10:49:37.852Z,39.38
2019-01-27T10:50:37.798Z,33.75
2019-01-27T10:51:37.770Z,45.00
2019-01-27T10:52:37.720Z,61.88
2019-01-27T10:53:37.621Z,56.25
2019-01-27T10:54:37.569Z,45.00
2019-01-27T10:55:37.509Z,50.63
2019-01-27T10:56:37.485Z,56.25
2019-01-27T10:57:37.392Z,56.25
2019-01-27T10:58:37.367Z,61.88
2019-01-27T10:59:37.279Z,61.88
2019-01-27T11:00:37.219Z,67.50
2019-01-27T11:01:37.160Z,56.25
2019-01-27T11:02:37.966Z,50.63
2019-01-27T11:03:37.101Z,39.38
2019-01-27T11:04:36.993Z,45.00
2019-01-27T11:05:36.977Z,45.00
2019-01-27T11:06:36.879Z,50.63
2019-01-27T11:07:36.820Z,50.63
2019-01-27T11:08:36.762Z,56.25
2019-01-27T11:09:36.706Z,67.50
2019-01-27T11:10:36.692Z,84.38
2019-01-27T11:11:36.594Z,95.63
2019-01-27T11:12:36.532Z,106.88
2019-01-27T11:13:36.475Z,101.25
2019-01-27T11:14:36.422Z,90.00
2019-01-27T11:15:36.396Z,84.38
2019-01-27T11:16:36.306Z,73.13
2019-01-27T11:17:36.372Z,84.38
2019-01-27T11:18:36.191Z,78.75
2019-01-27T11:19:36.132Z,61.88
2019-01-27T11:20:40.100Z,56.25
2019-01-27T11:21:36.024Z,45.00
2019-01-27T11:22:36.000Z,33.75
2019-01-27T11:23:35.904Z,39.38
2019-01-27T11:24:35.882Z,45.00
2019-01-27T11:25:35.789Z,50.63
2019-01-27T11:26:35.731Z,50.63
2019-01-27T11:27:35.677Z,50.63
2019-01-27T11:28:35.655Z,50.63
2019-01-27T11:29:35.559Z,45.00
2019-01-27T11:30:35.529Z,56.25
2019-01-27T11:31:35.451Z,61.88
2019-01-27T11:32:35.389Z,56.25
2019-01-27T11:33:35.333Z,56.25
2019-01-27T11:34:35.281Z,50.63
2019-01-27T11:35:35.249Z,45.00
2019-01-27T11:36:35.165Z,45.00
2019-01-27T11:37:35.109Z,56.25
2019-01-27T11:38:35.088Z,56.25
2019-01-27T11:39:35.756Z,56.25
2019-01-27T11:40:34.933Z,56.25
2019-01-27T11:41:34.908Z,61.88
2019-01-27T11:42:34.816Z,61.88
2019-01-27T11:43:34.763Z,61.88
2019-01-27T11:44:34.708Z,67.50
2019-01-27T11:45:34.646Z,67.50
2019-01-27T11:46:34.612Z,67.50
2019-01-27T11:47:34.529Z,67.50
2019-01-27T11:48:34.531Z,67.50
2019-01-27T11:49:34.417Z,73.13
2019-01-27T11:50:34.391Z,67.50
2019-01-27T11:51:34.362Z,67.50
2019-01-27T11:52:34.255Z,67.50
2019-01-27T11:53:34.188Z,61.88
2019-01-27T11:54:34.131Z,61.88
2019-01-27T11:55:34.072Z,73.13
2019-01-27T11:56:34.049Z,67.50
2019-01-27T11:57:33.960Z,56.25
2019-01-27T11:58:33.936Z,61.88
2019-01-27T11:59:33.843Z,67.50
2019-01-27T12:00:33.823Z,56.25
2019-01-27T12:01:33.765Z,56.25
2019-01-27T12:02:33.674Z,67.50
2019-01-27T12:03:33.618Z,67.50
2019-01-27T12:04:33.594Z,56.25
2019-01-27T12:05:33.501Z,56.25
2019-01-27T12:06:33.444Z,50.63
2019-01-27T12:07:33.392Z,56.25
2019-01-27T12:08:33.367Z,61.88
2019-01-27T12:09:33.275Z,67.50
2019-01-27T12:10:33.219Z,78.75
2019-01-27T12:11:33.161Z,78.75
2019-01-27T12:12:33.103Z,73.13
2019-01-27T12:13:33.080Z,67.50
2019-01-27T12:14:32.992Z,67.50
2019-01-27T12:15:32.967Z,67.50
2019-01-27T12:16:32.916Z,73.13
2019-01-27T12:17:32.819Z,67.50
2019-01-27T12:18:32.765Z,67.50
2019-01-27T12:19:32.705Z,73.13
2019-01-27T12:20:32.648Z,61.88
2019-01-27T12:21:32.624Z,56.25
2019-01-27T12:22:32.539Z,50.63
2019-01-27T12:23:32.509Z,45.00
2019-01-27T12:24:32.427Z,39.38
2019-01-27T12:25:32.400Z,33.75
2019-01-27T12:26:32.341Z,28.13
2019-01-27T12:27:32.268Z,33.75
2019-01-27T12:28:32.199Z,33.75
2019-01-27T12:29:32.168Z,28.13
2019-01-27T12:30:32.080Z,28.13
2019-01-27T12:31:32.058Z,50.63
2019-01-27T12:32:31.964Z,61.88
2019-01-27T12:33:31.939Z,56.25
2019-01-27T12:34:31.851Z,39.38
2019-01-27T12:35:31.808Z,33.75
2019-01-27T12:36:31.744Z,33.75
2019-01-27T12:37:31.678Z,33.75
2019-01-27T12:38:31.654Z,39.38
2019-01-27T12:39:31.567Z,45.00
2019-01-27T12:40:31.513Z,50.63
2019-01-27T12:41:31.479Z,45.00
2019-01-27T12:42:31.392Z,45.00
2019-01-27T12:43:31.338Z,50.63
2019-01-27T12:44:31.314Z,56.25
2019-01-27T12:45:31.224Z,56.25
2019-01-27T12:46:31.162Z,56.25
2019-01-27T12:47:31.109Z,61.88
2019-01-27T12:48:31.085Z,78.75
2019-01-27T12:49:31.027Z,73.13
2019-01-27T12:50:30.939Z,67.50
2019-01-27T12:51:30.886Z,78.75
2019-01-27T12:52:30.822Z,84.38
2019-01-27T12:53:30.765Z,78.75
2019-01-27T12:54:30.742Z,67.50
2019-01-27T12:55:30.652Z,61.88
2019-01-27T12:56:30.627Z,61.88
2019-01-27T12:57:30.538Z,61.88
2019-01-27T12:58:30.478Z,56.25
2019-01-27T12:59:30.424Z,45.00
2019-01-27T13:00:30.370Z,45.00
2019-01-27T13:01:30.359Z,39.38
2019-01-27T13:02:30.251Z,39.38
2019-01-27T13:03:30.195Z,33.75
2019-01-27T13:04:30.141Z,39.38
2019-01-27T13:05:30.081Z,39.38
2019-01-27T13:06:30.058Z,39.38